KRHVKPVF

Guest
Details From KRHV - Reid Hillview Of Santa Clara Co
To KPVF - Placerville Airport
Flight Number -
Tags generated
Created
Modified
Stats Distance 98 nm / 181 km
Max Altitude 3,000 ft / 914 m
Waypoints 3
Social Downloads 0
Likes 0
Share

Download

Looking for another format? Having issues loading an existing format? Contact us
Advertisement - Login to hide

Notes

Basic altitude profile: - Ascent Rate: 1200ft/min - Ascent Speed: 150kts - Cruise Altitude: 3000ft - Cruise Speed: 150kts - Descent Rate: 1500ft/min - Descent Speed: 150kts Options: - Use NATs: yes - Use PACOTS: yes - Use low airways: yes - Use high airways: yes

Route

KRHV BYRON KPVF

ID Type Via Altitude (ft/m) Position (lat/lon) Dist (leg/tot) Name
O KRHV APT - 0 / 0 37.33280 / -121.82000 - / 0 nm Reid Hillview Of Santa Clara Co
BYRON FIX - 3,000 / 914 37.82290 / -121.46900 33 / 33 nm
O KPVF APT - 0 / 0 38.72420 / -120.75300 63 / 97 nm Placerville Airport

Altitude Profile

Advertisement - Login to hide

KRHV

Details ICAO KRHV (RHV)
Name Reid Hillview Of Santa Clara Co
Region United States
Timezone America/Los_Angeles (UTC-7.0)
Stats Elevation 131 ft / 40 m (AMSL)
Location 37.332800° -121.820000°
Runways 2
Magnetic Variation 12.948° E

METAR

KRHV 211450Z 11006KT 10SM BKN050 OVC100 19/14 A3010

Decode

TAF

Not found

Departure Runways

ID Width Length Bearing (true/mag) Surface Threshold Overrun Markings Lighting
13L 76 ft / 23 m 2,997 ft / 913 m 142.99° / 130.05° ASPHALT 499 ft / 152 m 0 ft / 0 m APP EDGE THRESHOLD REIL-OMNI
13R 76 ft / 23 m 3,006 ft / 916 m 142.99° / 130.04° ASPHALT 499 ft / 152 m 0 ft / 0 m APP EDGE THRESHOLD REIL-OMNI
31L 76 ft / 23 m 3,006 ft / 916 m 322.99° / 310.04° ASPHALT 410 ft / 125 m 0 ft / 0 m APP EDGE THRESHOLD REIL-OMNI
31R 76 ft / 23 m 2,997 ft / 913 m 323.00° / 310.05° ASPHALT 410 ft / 125 m 0 ft / 0 m APP EDGE THRESHOLD REIL-OMNI

KPVF

Details ICAO KPVF
Name Placerville Airport
Region United States
Timezone America/Los_Angeles (UTC-7.0)
Stats Elevation 2,585 ft / 788 m (AMSL)
Location 38.724200° -120.753000°
Runways 1
Magnetic Variation 13.047° E

METAR

KPVF 211515Z AUTO 14007KT 10SM BKN018 OVC024 14/14 A3017 RMK AO1

Decode

TAF

Not found

Destination Runways

ID Width Length Bearing (true/mag) Surface Threshold Overrun Markings Lighting
05 75 ft / 23 m 3,914 ft / 1,193 m 62.78° / 49.73° ASPHALT 0 ft / 0 m 151 ft / 46 m VISUAL EDGE THRESHOLD
23 75 ft / 23 m 3,914 ft / 1,193 m 242.78° / 229.74° ASPHALT 0 ft / 0 m 138 ft / 42 m VISUAL EDGE THRESHOLD

Popular Alternatives